sensor_id;sensor_type;location;lat;lon;timestamp;P1;durP1;ratioP1;P2;durP2;ratioP2
5539;SDS011;2792;52.452;9.752;2022-10-16T00:00:19;2.40;;;1.50;;
5539;SDS011;2792;52.452;9.752;2022-10-16T00:02:47;2.30;;;1.40;;
5539;SDS011;2792;52.452;9.752;2022-10-16T00:05:14;2.30;;;1.27;;
5539;SDS011;2792;52.452;9.752;2022-10-16T00:07:41;1.70;;;1.40;;
5539;SDS011;2792;52.452;9.752;2022-10-16T00:10:07;2.80;;;1.40;;
5539;SDS011;2792;52.452;9.752;2022-10-16T00:12:34;1.10;;;1.00;;
5539;SDS011;2792;52.452;9.752;2022-10-16T00:15:01;5.17;;;1.40;;
5539;SDS011;2792;52.452;9.752;2022-10-16T00:17:29;2.60;;;1.30;;
5539;SDS011;2792;52.452;9.752;2022-10-16T00:19:57;1.13;;;1.03;;
5539;SDS011;2792;52.452;9.752;2022-10-16T00:22:24;1.10;;;1.07;;
5539;SDS011;2792;52.452;9.752;2022-10-16T00:24:50;1.83;;;1.30;;
5539;SDS011;2792;52.452;9.752;2022-10-16T00:27:17;1.33;;;1.23;;
5539;SDS011;2792;52.452;9.752;2022-10-16T00:29:44;2.20;;;1.27;;
5539;SDS011;2792;52.452;9.752;2022-10-16T00:32:10;4.43;;;1.20;;
5539;SDS011;2792;52.452;9.752;2022-10-16T00:34:37;1.67;;;1.07;;
5539;SDS011;2792;52.452;9.752;2022-10-16T00:37:05;1.63;;;1.50;;
5539;SDS011;2792;52.452;9.752;2022-10-16T00:39:32;2.53;;;1.37;;
5539;SDS011;2792;52.452;9.752;2022-10-16T00:41:58;2.40;;;1.20;;
5539;SDS011;2792;52.452;9.752;2022-10-16T00:44:42;1.53;;;1.10;;
5539;SDS011;2792;52.452;9.752;2022-10-16T00:47:11;1.97;;;1.13;;
5539;SDS011;2792;52.452;9.752;2022-10-16T00:49:43;3.83;;;1.30;;
5539;SDS011;2792;52.452;9.752;2022-10-16T00:52:11;1.63;;;1.40;;
5539;SDS011;2792;52.452;9.752;2022-10-16T00:54:39;1.40;;;1.30;;
5539;SDS011;2792;52.452;9.752;2022-10-16T00:57:06;1.97;;;1.30;;
5539;SDS011;2792;52.452;9.752;2022-10-16T00:59:34;1.20;;;1.10;;
5539;SDS011;2792;52.452;9.752;2022-10-16T01:02:02;1.13;;;1.03;;
5539;SDS011;2792;52.452;9.752;2022-10-16T01:04:31;1.27;;;1.07;;
5539;SDS011;2792;52.452;9.752;2022-10-16T01:07:00;1.00;;;1.00;;
5539;SDS011;2792;52.452;9.752;2022-10-16T01:09:34;3.23;;;1.23;;
5539;SDS011;2792;52.452;9.752;2022-10-16T01:12:05;3.63;;;1.43;;
5539;SDS011;2792;52.452;9.752;2022-10-16T01:14:38;2.30;;;1.70;;
5539;SDS011;2792;52.452;9.752;2022-10-16T01:17:08;2.10;;;1.43;;
5539;SDS011;2792;52.452;9.752;2022-10-16T01:19:44;1.70;;;1.50;;
5539;SDS011;2792;52.452;9.752;2022-10-16T01:22:22;2.37;;;1.67;;
5539;SDS011;2792;52.452;9.752;2022-10-16T01:24:53;1.13;;;1.07;;
5539;SDS011;2792;52.452;9.752;2022-10-16T01:27:23;5.90;;;1.63;;
5539;SDS011;2792;52.452;9.752;2022-10-16T01:29:52;1.37;;;1.27;;
5539;SDS011;2792;52.452;9.752;2022-10-16T01:32:23;1.73;;;1.30;;
5539;SDS011;2792;52.452;9.752;2022-10-16T01:34:58;1.40;;;1.30;;
5539;SDS011;2792;52.452;9.752;2022-10-16T01:37:29;2.50;;;1.40;;
5539;SDS011;2792;52.452;9.752;2022-10-16T01:40:01;2.10;;;1.67;;
5539;SDS011;2792;52.452;9.752;2022-10-16T01:42:33;1.83;;;1.53;;
5539;SDS011;2792;52.452;9.752;2022-10-16T01:45:02;2.30;;;1.67;;
5539;SDS011;2792;52.452;9.752;2022-10-16T01:47:33;1.73;;;1.47;;
5539;SDS011;2792;52.452;9.752;2022-10-16T01:50:00;1.90;;;1.50;;
5539;SDS011;2792;52.452;9.752;2022-10-16T01:52:29;3.90;;;1.53;;
5539;SDS011;2792;52.452;9.752;2022-10-16T01:54:58;2.60;;;1.40;;
5539;SDS011;2792;52.452;9.752;2022-10-16T01:57:27;3.67;;;1.60;;
5539;SDS011;2792;52.452;9.752;2022-10-16T01:59:57;2.17;;;1.60;;
5539;SDS011;2792;52.452;9.752;2022-10-16T02:02:28;1.83;;;1.40;;
5539;SDS011;2792;52.452;9.752;2022-10-16T02:04:57;1.60;;;1.50;;
5539;SDS011;2792;52.452;9.752;2022-10-16T02:07:25;1.50;;;1.40;;
5539;SDS011;2792;52.452;9.752;2022-10-16T02:09:51;4.03;;;1.60;;
5539;SDS011;2792;52.452;9.752;2022-10-16T02:12:19;1.70;;;1.60;;
5539;SDS011;2792;52.452;9.752;2022-10-16T02:14:50;2.30;;;1.70;;
5539;SDS011;2792;52.452;9.752;2022-10-16T02:17:18;2.10;;;1.90;;
5539;SDS011;2792;52.452;9.752;2022-10-16T02:19:45;1.53;;;1.43;;
5539;SDS011;2792;52.452;9.752;2022-10-16T02:22:15;2.17;;;1.97;;
5539;SDS011;2792;52.452;9.752;2022-10-16T02:24:46;3.27;;;2.23;;
5539;SDS011;2792;52.452;9.752;2022-10-16T02:27:19;2.93;;;1.80;;
5539;SDS011;2792;52.452;9.752;2022-10-16T02:29:52;2.07;;;1.90;;
5539;SDS011;2792;52.452;9.752;2022-10-16T02:32:27;2.47;;;2.27;;
5539;SDS011;2792;52.452;9.752;2022-10-16T02:34:56;9.00;;;3.40;;
5539;SDS011;2792;52.452;9.752;2022-10-16T02:37:24;2.20;;;1.93;;
5539;SDS011;2792;52.452;9.752;2022-10-16T02:39:52;2.37;;;1.70;;
5539;SDS011;2792;52.452;9.752;2022-10-16T02:42:19;6.60;;;1.77;;
5539;SDS011;2792;52.452;9.752;2022-10-16T02:44:46;3.13;;;1.90;;
5539;SDS011;2792;52.452;9.752;2022-10-16T02:47:12;1.67;;;1.57;;
5539;SDS011;2792;52.452;9.752;2022-10-16T02:49:40;2.83;;;1.87;;
5539;SDS011;2792;52.452;9.752;2022-10-16T02:52:07;2.60;;;2.10;;
5539;SDS011;2792;52.452;9.752;2022-10-16T02:54:34;2.30;;;1.97;;
5539;SDS011;2792;52.452;9.752;2022-10-16T02:57:00;7.83;;;2.33;;
5539;SDS011;2792;52.452;9.752;2022-10-16T02:59:27;3.03;;;2.07;;
5539;SDS011;2792;52.452;9.752;2022-10-16T03:01:54;2.50;;;2.27;;
5539;SDS011;2792;52.452;9.752;2022-10-16T03:04:21;2.37;;;2.17;;
5539;SDS011;2792;52.452;9.752;2022-10-16T03:06:49;2.43;;;2.23;;
5539;SDS011;2792;52.452;9.752;2022-10-16T03:09:15;1.93;;;1.83;;
5539;SDS011;2792;52.452;9.752;2022-10-16T03:11:42;3.33;;;2.17;;
5539;SDS011;2792;52.452;9.752;2022-10-16T03:14:09;2.60;;;1.90;;
5539;SDS011;2792;52.452;9.752;2022-10-16T03:16:35;4.90;;;2.73;;
5539;SDS011;2792;52.452;9.752;2022-10-16T03:19:02;2.90;;;1.97;;
5539;SDS011;2792;52.452;9.752;2022-10-16T03:21:29;2.40;;;2.20;;
5539;SDS011;2792;52.452;9.752;2022-10-16T03:23:57;3.23;;;2.20;;
5539;SDS011;2792;52.452;9.752;2022-10-16T03:26:23;4.00;;;1.90;;
5539;SDS011;2792;52.452;9.752;2022-10-16T03:28:50;3.13;;;2.20;;
5539;SDS011;2792;52.452;9.752;2022-10-16T03:31:17;2.37;;;1.90;;
5539;SDS011;2792;52.452;9.752;2022-10-16T03:33:43;3.47;;;2.17;;
5539;SDS011;2792;52.452;9.752;2022-10-16T03:36:10;4.03;;;2.03;;
5539;SDS011;2792;52.452;9.752;2022-10-16T03:38:37;2.23;;;1.90;;
5539;SDS011;2792;52.452;9.752;2022-10-16T03:41:05;5.23;;;2.00;;
5539;SDS011;2792;52.452;9.752;2022-10-16T03:43:32;4.47;;;2.50;;
5539;SDS011;2792;52.452;9.752;2022-10-16T03:45:59;3.13;;;2.70;;
5539;SDS011;2792;52.452;9.752;2022-10-16T03:48:26;2.93;;;2.63;;
5539;SDS011;2792;52.452;9.752;2022-10-16T03:50:53;6.00;;;2.87;;
5539;SDS011;2792;52.452;9.752;2022-10-16T03:53:20;3.73;;;2.77;;
5539;SDS011;2792;52.452;9.752;2022-10-16T03:55:46;3.70;;;3.27;;
5539;SDS011;2792;52.452;9.752;2022-10-16T03:58:15;4.33;;;2.70;;
5539;SDS011;2792;52.452;9.752;2022-10-16T04:00:42;4.97;;;2.60;;
5539;SDS011;2792;52.452;9.752;2022-10-16T04:03:09;2.60;;;2.40;;
5539;SDS011;2792;52.452;9.752;2022-10-16T04:05:36;2.63;;;2.30;;
5539;SDS011;2792;52.452;9.752;2022-10-16T04:08:03;3.03;;;2.60;;
5539;SDS011;2792;52.452;9.752;2022-10-16T04:10:30;2.87;;;2.30;;
5539;SDS011;2792;52.452;9.752;2022-10-16T04:12:56;4.63;;;2.80;;
5539;SDS011;2792;52.452;9.752;2022-10-16T04:15:25;2.53;;;2.33;;
5539;SDS011;2792;52.452;9.752;2022-10-16T04:17:52;2.73;;;2.53;;
5539;SDS011;2792;52.452;9.752;2022-10-16T04:20:18;2.90;;;2.53;;
5539;SDS011;2792;52.452;9.752;2022-10-16T04:22:45;2.97;;;2.23;;
5539;SDS011;2792;52.452;9.752;2022-10-16T04:25:12;2.37;;;2.17;;
5539;SDS011;2792;52.452;9.752;2022-10-16T04:27:39;2.60;;;2.40;;
5539;SDS011;2792;52.452;9.752;2022-10-16T04:30:06;7.53;;;2.53;;
5539;SDS011;2792;52.452;9.752;2022-10-16T04:32:35;2.90;;;2.63;;
5539;SDS011;2792;52.452;9.752;2022-10-16T04:35:01;3.67;;;2.30;;
5539;SDS011;2792;52.452;9.752;2022-10-16T04:37:29;2.93;;;2.47;;
5539;SDS011;2792;52.452;9.752;2022-10-16T04:39:55;2.87;;;2.60;;
5539;SDS011;2792;52.452;9.752;2022-10-16T04:42:22;3.83;;;2.57;;
5539;SDS011;2792;52.452;9.752;2022-10-16T04:44:49;3.40;;;2.37;;
5539;SDS011;2792;52.452;9.752;2022-10-16T04:47:15;3.83;;;2.77;;
5539;SDS011;2792;52.452;9.752;2022-10-16T04:49:43;3.17;;;2.77;;
5539;SDS011;2792;52.452;9.752;2022-10-16T04:52:10;3.83;;;2.80;;
5539;SDS011;2792;52.452;9.752;2022-10-16T04:54:37;4.57;;;3.10;;
5539;SDS011;2792;52.452;9.752;2022-10-16T04:57:03;3.27;;;2.73;;
5539;SDS011;2792;52.452;9.752;2022-10-16T04:59:30;3.40;;;2.47;;
5539;SDS011;2792;52.452;9.752;2022-10-16T05:01:57;8.43;;;3.20;;
5539;SDS011;2792;52.452;9.752;2022-10-16T05:04:24;4.23;;;2.67;;
5539;SDS011;2792;52.452;9.752;2022-10-16T05:06:52;6.13;;;2.93;;
5539;SDS011;2792;52.452;9.752;2022-10-16T05:09:19;7.40;;;2.77;;
5539;SDS011;2792;52.452;9.752;2022-10-16T05:11:45;3.10;;;2.80;;
5539;SDS011;2792;52.452;9.752;2022-10-16T05:14:12;6.40;;;2.97;;
5539;SDS011;2792;52.452;9.752;2022-10-16T05:16:39;3.33;;;3.03;;
5539;SDS011;2792;52.452;9.752;2022-10-16T05:19:05;3.67;;;3.27;;
5539;SDS011;2792;52.452;9.752;2022-10-16T05:21:32;5.13;;;3.17;;
5539;SDS011;2792;52.452;9.752;2022-10-16T05:24:00;4.53;;;3.07;;
5539;SDS011;2792;52.452;9.752;2022-10-16T05:26:27;5.80;;;3.27;;
5539;SDS011;2792;52.452;9.752;2022-10-16T05:28:54;5.73;;;3.50;;
5539;SDS011;2792;52.452;9.752;2022-10-16T05:31:20;3.27;;;2.97;;
5539;SDS011;2792;52.452;9.752;2022-10-16T05:33:47;9.63;;;2.90;;
5539;SDS011;2792;52.452;9.752;2022-10-16T05:36:14;5.07;;;3.50;;
5539;SDS011;2792;52.452;9.752;2022-10-16T05:38:40;3.47;;;3.17;;
5539;SDS011;2792;52.452;9.752;2022-10-16T05:41:08;4.47;;;3.40;;
5539;SDS011;2792;52.452;9.752;2022-10-16T05:43:35;3.30;;;2.90;;
5539;SDS011;2792;52.452;9.752;2022-10-16T05:46:03;3.70;;;3.13;;
5539;SDS011;2792;52.452;9.752;2022-10-16T05:48:30;3.50;;;3.00;;
5539;SDS011;2792;52.452;9.752;2022-10-16T05:50:58;4.43;;;3.97;;
5539;SDS011;2792;52.452;9.752;2022-10-16T05:53:26;4.20;;;3.20;;
5539;SDS011;2792;52.452;9.752;2022-10-16T05:55:53;4.90;;;3.40;;
5539;SDS011;2792;52.452;9.752;2022-10-16T05:58:22;9.30;;;3.70;;
5539;SDS011;2792;52.452;9.752;2022-10-16T06:00:54;5.63;;;4.30;;
5539;SDS011;2792;52.452;9.752;2022-10-16T06:03:22;5.20;;;4.10;;
5539;SDS011;2792;52.452;9.752;2022-10-16T06:05:49;4.33;;;3.93;;
5539;SDS011;2792;52.452;9.752;2022-10-16T06:08:19;4.60;;;3.90;;
5539;SDS011;2792;52.452;9.752;2022-10-16T06:10:46;3.97;;;3.60;;
5539;SDS011;2792;52.452;9.752;2022-10-16T06:13:13;5.03;;;3.80;;
5539;SDS011;2792;52.452;9.752;2022-10-16T06:15:42;4.63;;;3.57;;
5539;SDS011;2792;52.452;9.752;2022-10-16T06:18:09;3.70;;;3.30;;
5539;SDS011;2792;52.452;9.752;2022-10-16T06:20:36;7.83;;;5.17;;
5539;SDS011;2792;52.452;9.752;2022-10-16T06:23:02;8.80;;;3.53;;
5539;SDS011;2792;52.452;9.752;2022-10-16T06:25:29;4.47;;;3.00;;
5539;SDS011;2792;52.452;9.752;2022-10-16T06:27:56;7.57;;;3.27;;
5539;SDS011;2792;52.452;9.752;2022-10-16T06:30:32;3.87;;;3.57;;
5539;SDS011;2792;52.452;9.752;2022-10-16T06:33:00;3.20;;;2.60;;
5539;SDS011;2792;52.452;9.752;2022-10-16T06:35:26;3.37;;;2.83;;
5539;SDS011;2792;52.452;9.752;2022-10-16T06:37:54;10.37;;;2.47;;
5539;SDS011;2792;52.452;9.752;2022-10-16T06:40:21;3.80;;;2.77;;
5539;SDS011;2792;52.452;9.752;2022-10-16T06:42:54;2.40;;;2.13;;
5539;SDS011;2792;52.452;9.752;2022-10-16T06:45:20;2.60;;;2.40;;
5539;SDS011;2792;52.452;9.752;2022-10-16T06:47:47;3.20;;;2.80;;
5539;SDS011;2792;52.452;9.752;2022-10-16T06:50:15;3.03;;;2.23;;
5539;SDS011;2792;52.452;9.752;2022-10-16T06:52:42;4.03;;;1.70;;
5539;SDS011;2792;52.452;9.752;2022-10-16T06:55:08;2.90;;;1.73;;
5539;SDS011;2792;52.452;9.752;2022-10-16T06:57:35;2.03;;;1.83;;
5539;SDS011;2792;52.452;9.752;2022-10-16T07:00:02;6.93;;;2.70;;
5539;SDS011;2792;52.452;9.752;2022-10-16T07:02:30;3.23;;;1.90;;
5539;SDS011;2792;52.452;9.752;2022-10-16T07:04:56;2.30;;;2.00;;
5539;SDS011;2792;52.452;9.752;2022-10-16T07:07:24;1.73;;;1.40;;
5539;SDS011;2792;52.452;9.752;2022-10-16T07:09:51;3.00;;;1.53;;
5539;SDS011;2792;52.452;9.752;2022-10-16T07:12:18;3.67;;;1.80;;
5539;SDS011;2792;52.452;9.752;2022-10-16T07:14:44;2.63;;;1.70;;
5539;SDS011;2792;52.452;9.752;2022-10-16T07:17:11;1.60;;;1.50;;
5539;SDS011;2792;52.452;9.752;2022-10-16T07:19:38;1.73;;;1.63;;
5539;SDS011;2792;52.452;9.752;2022-10-16T07:22:04;1.43;;;1.30;;
5539;SDS011;2792;52.452;9.752;2022-10-16T07:24:33;1.83;;;1.33;;
5539;SDS011;2792;52.452;9.752;2022-10-16T07:26:59;1.33;;;1.23;;
5539;SDS011;2792;52.452;9.752;2022-10-16T07:29:26;1.50;;;1.20;;
5539;SDS011;2792;52.452;9.752;2022-10-16T07:31:53;1.77;;;1.43;;
5539;SDS011;2792;52.452;9.752;2022-10-16T07:34:20;1.73;;;1.50;;
5539;SDS011;2792;52.452;9.752;2022-10-16T07:36:48;4.23;;;1.60;;
5539;SDS011;2792;52.452;9.752;2022-10-16T07:39:15;1.43;;;1.30;;
5539;SDS011;2792;52.452;9.752;2022-10-16T07:41:43;1.43;;;1.33;;
5539;SDS011;2792;52.452;9.752;2022-10-16T07:44:09;1.27;;;1.17;;
5539;SDS011;2792;52.452;9.752;2022-10-16T07:46:36;3.27;;;1.57;;
5539;SDS011;2792;52.452;9.752;2022-10-16T07:49:03;1.30;;;1.20;;
5539;SDS011;2792;52.452;9.752;2022-10-16T07:51:30;1.30;;;1.17;;
5539;SDS011;2792;52.452;9.752;2022-10-16T07:53:57;1.77;;;1.23;;
5539;SDS011;2792;52.452;9.752;2022-10-16T07:56:23;1.50;;;1.40;;
5539;SDS011;2792;52.452;9.752;2022-10-16T07:58:51;2.10;;;1.23;;
5539;SDS011;2792;52.452;9.752;2022-10-16T08:01:18;1.43;;;1.20;;
5539;SDS011;2792;52.452;9.752;2022-10-16T08:03:45;3.70;;;1.20;;
5539;SDS011;2792;52.452;9.752;2022-10-16T08:06:13;1.10;;;1.00;;
5539;SDS011;2792;52.452;9.752;2022-10-16T08:08:40;5.87;;;1.40;;
5539;SDS011;2792;52.452;9.752;2022-10-16T08:11:06;2.40;;;1.10;;
5539;SDS011;2792;52.452;9.752;2022-10-16T08:13:33;1.53;;;1.17;;
5539;SDS011;2792;52.452;9.752;2022-10-16T08:16:01;2.47;;;1.27;;
5539;SDS011;2792;52.452;9.752;2022-10-16T08:18:32;1.13;;;0.97;;
5539;SDS011;2792;52.452;9.752;2022-10-16T08:20:59;1.13;;;1.13;;
5539;SDS011;2792;52.452;9.752;2022-10-16T08:23:26;3.03;;;1.57;;
5539;SDS011;2792;52.452;9.752;2022-10-16T08:25:53;1.13;;;1.03;;
5539;SDS011;2792;52.452;9.752;2022-10-16T08:28:20;3.27;;;1.40;;
5539;SDS011;2792;52.452;9.752;2022-10-16T08:30:47;3.57;;;1.33;;
5539;SDS011;2792;52.452;9.752;2022-10-16T08:33:15;1.40;;;1.03;;
5539;SDS011;2792;52.452;9.752;2022-10-16T08:35:42;1.23;;;1.13;;
5539;SDS011;2792;52.452;9.752;2022-10-16T08:38:09;5.40;;;1.10;;
5539;SDS011;2792;52.452;9.752;2022-10-16T08:40:36;1.20;;;1.10;;
5539;SDS011;2792;52.452;9.752;2022-10-16T08:43:08;5.07;;;1.50;;
5539;SDS011;2792;52.452;9.752;2022-10-16T08:45:59;3.73;;;1.07;;
5539;SDS011;2792;52.452;9.752;2022-10-16T08:48:38;1.73;;;1.30;;
5539;SDS011;2792;52.452;9.752;2022-10-16T08:51:10;1.70;;;1.23;;
5539;SDS011;2792;52.452;9.752;2022-10-16T08:53:41;1.13;;;1.00;;
5539;SDS011;2792;52.452;9.752;2022-10-16T08:56:09;1.20;;;1.10;;
5539;SDS011;2792;52.452;9.752;2022-10-16T08:58:36;2.80;;;1.60;;
5539;SDS011;2792;52.452;9.752;2022-10-16T09:01:03;3.60;;;1.10;;
5539;SDS011;2792;52.452;9.752;2022-10-16T09:03:33;3.07;;;1.27;;
5539;SDS011;2792;52.452;9.752;2022-10-16T09:06:11;2.90;;;0.97;;
5539;SDS011;2792;52.452;9.752;2022-10-16T09:08:46;2.13;;;1.00;;
5539;SDS011;2792;52.452;9.752;2022-10-16T09:11:20;1.00;;;1.00;;
5539;SDS011;2792;52.452;9.752;2022-10-16T09:13:53;4.87;;;1.10;;
5539;SDS011;2792;52.452;9.752;2022-10-16T09:16:24;0.80;;;0.80;;
5539;SDS011;2792;52.452;9.752;2022-10-16T09:18:56;2.23;;;2.03;;
5539;SDS011;2792;52.452;9.752;2022-10-16T09:21:27;1.40;;;1.13;;
5539;SDS011;2792;52.452;9.752;2022-10-16T09:23:57;1.30;;;1.00;;
5539;SDS011;2792;52.452;9.752;2022-10-16T09:26:25;1.80;;;0.80;;
5539;SDS011;2792;52.452;9.752;2022-10-16T09:28:52;4.97;;;1.47;;
5539;SDS011;2792;52.452;9.752;2022-10-16T09:31:20;1.23;;;1.00;;
5539;SDS011;2792;52.452;9.752;2022-10-16T09:33:48;2.73;;;1.17;;
5539;SDS011;2792;52.452;9.752;2022-10-16T09:36:20;3.40;;;1.07;;
5539;SDS011;2792;52.452;9.752;2022-10-16T09:38:47;3.43;;;1.10;;
5539;SDS011;2792;52.452;9.752;2022-10-16T09:41:16;1.60;;;1.03;;
5539;SDS011;2792;52.452;9.752;2022-10-16T09:43:46;1.00;;;1.00;;
5539;SDS011;2792;52.452;9.752;2022-10-16T09:46:21;2.20;;;0.80;;
5539;SDS011;2792;52.452;9.752;2022-10-16T09:48:51;1.20;;;1.03;;
5539;SDS011;2792;52.452;9.752;2022-10-16T09:51:22;1.77;;;0.90;;
5539;SDS011;2792;52.452;9.752;2022-10-16T09:53:54;2.10;;;1.10;;
5539;SDS011;2792;52.452;9.752;2022-10-16T09:56:22;1.40;;;1.07;;
5539;SDS011;2792;52.452;9.752;2022-10-16T09:58:50;1.77;;;0.90;;
5539;SDS011;2792;52.452;9.752;2022-10-16T10:01:17;3.83;;;0.90;;
5539;SDS011;2792;52.452;9.752;2022-10-16T10:03:45;2.43;;;0.93;;
5539;SDS011;2792;52.452;9.752;2022-10-16T10:06:17;1.00;;;0.90;;
5539;SDS011;2792;52.452;9.752;2022-10-16T10:08:59;2.83;;;0.93;;
5539;SDS011;2792;52.452;9.752;2022-10-16T10:11:41;1.37;;;1.03;;
5539;SDS011;2792;52.452;9.752;2022-10-16T10:14:13;3.20;;;1.13;;
5539;SDS011;2792;52.452;9.752;2022-10-16T10:16:43;1.60;;;0.93;;
5539;SDS011;2792;52.452;9.752;2022-10-16T10:19:13;1.40;;;1.00;;
5539;SDS011;2792;52.452;9.752;2022-10-16T10:21:40;3.50;;;1.03;;
5539;SDS011;2792;52.452;9.752;2022-10-16T10:24:10;1.90;;;1.10;;
5539;SDS011;2792;52.452;9.752;2022-10-16T10:26:38;2.20;;;0.77;;
5539;SDS011;2792;52.452;9.752;2022-10-16T10:29:06;1.63;;;0.97;;
5539;SDS011;2792;52.452;9.752;2022-10-16T10:31:41;2.50;;;1.00;;
5539;SDS011;2792;52.452;9.752;2022-10-16T10:34:12;3.27;;;1.07;;
5539;SDS011;2792;52.452;9.752;2022-10-16T10:36:50;1.60;;;0.93;;
5539;SDS011;2792;52.452;9.752;2022-10-16T10:39:22;1.43;;;0.90;;
5539;SDS011;2792;52.452;9.752;2022-10-16T10:44:50;1.47;;;0.90;;
5539;SDS011;2792;52.452;9.752;2022-10-16T10:47:24;2.90;;;1.07;;
5539;SDS011;2792;52.452;9.752;2022-10-16T10:50:02;2.87;;;1.37;;
5539;SDS011;2792;52.452;9.752;2022-10-16T10:52:40;1.37;;;0.80;;
5539;SDS011;2792;52.452;9.752;2022-10-16T10:55:12;3.20;;;1.27;;
5539;SDS011;2792;52.452;9.752;2022-10-16T10:57:48;1.73;;;1.10;;
5539;SDS011;2792;52.452;9.752;2022-10-16T11:00:23;5.43;;;1.10;;
5539;SDS011;2792;52.452;9.752;2022-10-16T11:02:55;4.50;;;1.10;;
5539;SDS011;2792;52.452;9.752;2022-10-16T11:08:09;1.13;;;0.80;;
5539;SDS011;2792;52.452;9.752;2022-10-16T11:10:42;1.13;;;0.80;;
5539;SDS011;2792;52.452;9.752;2022-10-16T11:13:15;2.07;;;0.97;;
5539;SDS011;2792;52.452;9.752;2022-10-16T11:15:46;4.00;;;1.53;;
5539;SDS011;2792;52.452;9.752;2022-10-16T11:18:15;3.00;;;0.80;;
5539;SDS011;2792;52.452;9.752;2022-10-16T11:20:45;1.10;;;1.00;;
5539;SDS011;2792;52.452;9.752;2022-10-16T11:23:14;3.30;;;1.00;;
5539;SDS011;2792;52.452;9.752;2022-10-16T11:25:44;1.43;;;1.00;;
5539;SDS011;2792;52.452;9.752;2022-10-16T11:28:11;3.87;;;1.20;;
5539;SDS011;2792;52.452;9.752;2022-10-16T11:30:41;6.77;;;1.20;;
5539;SDS011;2792;52.452;9.752;2022-10-16T11:33:17;3.07;;;0.90;;
5539;SDS011;2792;52.452;9.752;2022-10-16T11:35:51;3.27;;;1.00;;
5539;SDS011;2792;52.452;9.752;2022-10-16T11:38:20;0.80;;;0.80;;
5539;SDS011;2792;52.452;9.752;2022-10-16T11:40:54;1.10;;;1.00;;
5539;SDS011;2792;52.452;9.752;2022-10-16T11:43:25;3.03;;;1.00;;
5539;SDS011;2792;52.452;9.752;2022-10-16T11:45:54;3.00;;;1.20;;
5539;SDS011;2792;52.452;9.752;2022-10-16T11:48:24;2.20;;;0.90;;
5539;SDS011;2792;52.452;9.752;2022-10-16T11:50:54;3.43;;;1.10;;
5539;SDS011;2792;52.452;9.752;2022-10-16T11:53:24;2.40;;;0.80;;
5539;SDS011;2792;52.452;9.752;2022-10-16T11:55:59;1.93;;;1.03;;
5539;SDS011;2792;52.452;9.752;2022-10-16T11:58:26;2.50;;;0.90;;
5539;SDS011;2792;52.452;9.752;2022-10-16T12:00:58;2.13;;;0.93;;
5539;SDS011;2792;52.452;9.752;2022-10-16T12:03:28;2.77;;;1.20;;
5539;SDS011;2792;52.452;9.752;2022-10-16T12:06:04;2.10;;;1.00;;
5539;SDS011;2792;52.452;9.752;2022-10-16T12:08:38;3.50;;;1.00;;
5539;SDS011;2792;52.452;9.752;2022-10-16T12:11:08;4.50;;;1.03;;
5539;SDS011;2792;52.452;9.752;2022-10-16T12:13:36;3.40;;;1.00;;
5539;SDS011;2792;52.452;9.752;2022-10-16T12:16:04;3.40;;;0.90;;
5539;SDS011;2792;52.452;9.752;2022-10-16T12:18:32;10.07;;;1.10;;
5539;SDS011;2792;52.452;9.752;2022-10-16T12:20:59;4.60;;;1.17;;
5539;SDS011;2792;52.452;9.752;2022-10-16T12:23:30;1.90;;;1.10;;
5539;SDS011;2792;52.452;9.752;2022-10-16T12:25:58;4.50;;;1.20;;
5539;SDS011;2792;52.452;9.752;2022-10-16T12:28:27;3.17;;;1.13;;
5539;SDS011;2792;52.452;9.752;2022-10-16T12:30:55;2.30;;;0.90;;
5539;SDS011;2792;52.452;9.752;2022-10-16T12:33:23;0.90;;;0.80;;
5539;SDS011;2792;52.452;9.752;2022-10-16T12:35:51;3.27;;;1.20;;
5539;SDS011;2792;52.452;9.752;2022-10-16T12:38:19;3.13;;;1.20;;
5539;SDS011;2792;52.452;9.752;2022-10-16T12:40:54;5.87;;;1.10;;
5539;SDS011;2792;52.452;9.752;2022-10-16T12:43:34;1.00;;;0.77;;
5539;SDS011;2792;52.452;9.752;2022-10-16T12:46:04;2.60;;;0.90;;
5539;SDS011;2792;52.452;9.752;2022-10-16T12:48:32;1.10;;;0.77;;
5539;SDS011;2792;52.452;9.752;2022-10-16T12:51:09;1.83;;;1.10;;
5539;SDS011;2792;52.452;9.752;2022-10-16T12:53:36;1.03;;;0.93;;
5539;SDS011;2792;52.452;9.752;2022-10-16T12:56:04;2.80;;;0.97;;
5539;SDS011;2792;52.452;9.752;2022-10-16T12:58:41;1.77;;;1.00;;
5539;SDS011;2792;52.452;9.752;2022-10-16T13:01:24;1.73;;;1.10;;
5539;SDS011;2792;52.452;9.752;2022-10-16T13:04:04;3.20;;;1.20;;
5539;SDS011;2792;52.452;9.752;2022-10-16T13:06:42;1.60;;;1.10;;
5539;SDS011;2792;52.452;9.752;2022-10-16T13:12:07;1.53;;;1.10;;
5539;SDS011;2792;52.452;9.752;2022-10-16T13:14:45;2.60;;;0.97;;
5539;SDS011;2792;52.452;9.752;2022-10-16T13:17:24;1.83;;;1.20;;
5539;SDS011;2792;52.452;9.752;2022-10-16T13:19:56;2.00;;;1.27;;
5539;SDS011;2792;52.452;9.752;2022-10-16T13:22:30;1.83;;;1.00;;
5539;SDS011;2792;52.452;9.752;2022-10-16T13:25:02;1.53;;;0.90;;
5539;SDS011;2792;52.452;9.752;2022-10-16T13:27:40;2.60;;;1.00;;
5539;SDS011;2792;52.452;9.752;2022-10-16T13:30:13;2.10;;;1.00;;
5539;SDS011;2792;52.452;9.752;2022-10-16T13:32:43;2.10;;;0.97;;
5539;SDS011;2792;52.452;9.752;2022-10-16T13:35:18;1.03;;;0.93;;
5539;SDS011;2792;52.452;9.752;2022-10-16T13:37:46;2.17;;;0.93;;
5539;SDS011;2792;52.452;9.752;2022-10-16T13:40:18;0.80;;;0.80;;
5539;SDS011;2792;52.452;9.752;2022-10-16T13:42:46;2.87;;;1.10;;
5539;SDS011;2792;52.452;9.752;2022-10-16T13:45:21;4.13;;;1.00;;
5539;SDS011;2792;52.452;9.752;2022-10-16T13:47:48;2.90;;;1.20;;
5539;SDS011;2792;52.452;9.752;2022-10-16T13:50:15;1.43;;;0.90;;
5539;SDS011;2792;52.452;9.752;2022-10-16T13:52:43;1.27;;;0.90;;
5539;SDS011;2792;52.452;9.752;2022-10-16T13:55:10;1.80;;;0.87;;
5539;SDS011;2792;52.452;9.752;2022-10-16T13:57:38;2.33;;;0.80;;
5539;SDS011;2792;52.452;9.752;2022-10-16T14:00:16;2.60;;;1.00;;
5539;SDS011;2792;52.452;9.752;2022-10-16T14:02:45;2.27;;;0.90;;
5539;SDS011;2792;52.452;9.752;2022-10-16T14:05:18;3.40;;;0.90;;
5539;SDS011;2792;52.452;9.752;2022-10-16T14:07:47;1.17;;;0.83;;
5539;SDS011;2792;52.452;9.752;2022-10-16T14:10:20;4.10;;;1.30;;
5539;SDS011;2792;52.452;9.752;2022-10-16T14:12:53;5.73;;;1.37;;
5539;SDS011;2792;52.452;9.752;2022-10-16T14:15:21;1.47;;;0.90;;
5539;SDS011;2792;52.452;9.752;2022-10-16T14:17:50;2.57;;;1.20;;
5539;SDS011;2792;52.452;9.752;2022-10-16T14:20:17;1.57;;;1.20;;
5539;SDS011;2792;52.452;9.752;2022-10-16T14:22:45;2.10;;;1.10;;
5539;SDS011;2792;52.452;9.752;2022-10-16T14:25:24;1.73;;;1.00;;
5539;SDS011;2792;52.452;9.752;2022-10-16T14:28:03;4.73;;;1.20;;
5539;SDS011;2792;52.452;9.752;2022-10-16T14:30:32;1.30;;;0.83;;
5539;SDS011;2792;52.452;9.752;2022-10-16T14:33:01;1.20;;;1.00;;
5539;SDS011;2792;52.452;9.752;2022-10-16T14:35:30;3.63;;;1.63;;
5539;SDS011;2792;52.452;9.752;2022-10-16T14:37:59;1.80;;;1.03;;
5539;SDS011;2792;52.452;9.752;2022-10-16T14:40:27;2.93;;;1.40;;
5539;SDS011;2792;52.452;9.752;2022-10-16T14:42:54;5.80;;;1.70;;
5539;SDS011;2792;52.452;9.752;2022-10-16T14:45:21;1.60;;;1.20;;
5539;SDS011;2792;52.452;9.752;2022-10-16T14:47:51;1.90;;;1.20;;
5539;SDS011;2792;52.452;9.752;2022-10-16T14:50:20;1.93;;;1.13;;
5539;SDS011;2792;52.452;9.752;2022-10-16T14:52:47;1.40;;;1.20;;
5539;SDS011;2792;52.452;9.752;2022-10-16T14:55:14;6.43;;;0.90;;
5539;SDS011;2792;52.452;9.752;2022-10-16T14:57:41;2.63;;;1.03;;
5539;SDS011;2792;52.452;9.752;2022-10-16T15:00:10;1.47;;;0.93;;
5539;SDS011;2792;52.452;9.752;2022-10-16T15:02:41;2.60;;;1.20;;
5539;SDS011;2792;52.452;9.752;2022-10-16T15:05:10;1.60;;;1.13;;
5539;SDS011;2792;52.452;9.752;2022-10-16T15:07:40;2.67;;;1.00;;
5539;SDS011;2792;52.452;9.752;2022-10-16T15:10:07;1.70;;;1.13;;
5539;SDS011;2792;52.452;9.752;2022-10-16T15:12:34;0.90;;;0.80;;
5539;SDS011;2792;52.452;9.752;2022-10-16T15:15:05;1.97;;;0.93;;
5539;SDS011;2792;52.452;9.752;2022-10-16T15:17:48;4.00;;;0.90;;
5539;SDS011;2792;52.452;9.752;2022-10-16T15:20:17;1.50;;;1.00;;
5539;SDS011;2792;52.452;9.752;2022-10-16T15:22:45;2.90;;;1.60;;
5539;SDS011;2792;52.452;9.752;2022-10-16T15:25:13;3.13;;;1.10;;
5539;SDS011;2792;52.452;9.752;2022-10-16T15:27:52;3.23;;;1.17;;
5539;SDS011;2792;52.452;9.752;2022-10-16T15:30:19;3.20;;;1.03;;
5539;SDS011;2792;52.452;9.752;2022-10-16T15:32:49;1.80;;;1.20;;
5539;SDS011;2792;52.452;9.752;2022-10-16T15:35:16;4.13;;;1.40;;